createdAt,value
2023-04-19T00:00:19.295Z,27.00
2023-04-19T00:01:19.339Z,27.76
2023-04-19T00:02:19.546Z,28.95
2023-04-19T00:03:19.556Z,26.33
2023-04-19T00:04:19.622Z,28.62
2023-04-19T00:05:19.486Z,25.00
2023-04-19T00:06:19.459Z,30.08
2023-04-19T00:07:19.494Z,30.52
2023-04-19T00:08:19.516Z,29.37
2023-04-19T00:09:19.578Z,27.04
2023-04-19T00:10:19.636Z,27.91
2023-04-19T00:11:19.709Z,25.97
2023-04-19T00:12:19.803Z,28.96
2023-04-19T00:13:19.896Z,29.23
2023-04-19T00:14:19.947Z,28.88
2023-04-19T00:15:20.011Z,29.92
2023-04-19T00:16:20.110Z,26.19
2023-04-19T00:17:20.164Z,28.17
2023-04-19T00:18:20.258Z,29.64
2023-04-19T00:19:20.327Z,29.75
2023-04-19T00:20:20.421Z,26.81
2023-04-19T00:21:20.477Z,30.00
2023-04-19T00:22:20.556Z,29.06
2023-04-19T00:23:20.636Z,28.04
2023-04-19T00:24:20.710Z,27.43
2023-04-19T00:25:20.781Z,27.60
2023-04-19T00:26:20.867Z,27.48
2023-04-19T00:27:20.924Z,27.19
2023-04-19T00:28:21.019Z,27.06
2023-04-19T00:29:21.041Z,27.22
2023-04-19T00:30:21.032Z,27.65
2023-04-19T00:31:21.075Z,28.01
2023-04-19T00:32:21.060Z,27.60
2023-04-19T00:33:21.078Z,26.78
2023-04-19T00:34:21.097Z,26.04
2023-04-19T00:35:21.109Z,28.78
2023-04-19T00:36:21.137Z,25.76
2023-04-19T00:37:21.169Z,28.03
2023-04-19T00:38:21.181Z,28.16
2023-04-19T00:39:21.211Z,28.45
2023-04-19T00:40:21.229Z,28.98
2023-04-19T00:41:21.257Z,29.74
2023-04-19T00:42:21.272Z,29.05
2023-04-19T00:43:21.293Z,27.93
2023-04-19T00:44:21.324Z,25.11
2023-04-19T00:45:21.344Z,29.82
2023-04-19T00:46:21.382Z,28.41
2023-04-19T00:47:21.403Z,27.50
2023-04-19T00:48:21.475Z,28.55
2023-04-19T00:49:21.551Z,28.26
2023-04-19T00:50:21.632Z,28.81
2023-04-19T00:51:21.713Z,28.67
2023-04-19T00:52:21.767Z,28.12
2023-04-19T00:53:21.852Z,29.41
2023-04-19T00:54:21.919Z,30.15
2023-04-19T00:55:22.002Z,27.64
2023-04-19T00:56:22.083Z,28.49
2023-04-19T00:57:22.185Z,30.44
2023-04-19T00:58:22.254Z,29.66
2023-04-19T00:59:22.320Z,28.07
2023-04-19T01:00:22.414Z,27.95
2023-04-19T01:01:22.513Z,28.41
2023-04-19T01:02:22.664Z,29.91
2023-04-19T01:03:22.890Z,28.70
2023-04-19T01:04:22.797Z,28.97
2023-04-19T01:05:22.721Z,29.05
2023-04-19T01:06:22.749Z,29.89
2023-04-19T01:07:22.754Z,29.78
2023-04-19T01:08:22.804Z,28.99
2023-04-19T01:09:22.818Z,29.49
2023-04-19T01:10:22.819Z,28.81
2023-04-19T01:11:22.848Z,30.59
2023-04-19T01:12:22.870Z,30.74
2023-04-19T01:13:22.904Z,26.03
2023-04-19T01:14:22.927Z,27.95
2023-04-19T01:15:22.952Z,28.05
2023-04-19T01:16:23.032Z,28.36
2023-04-19T01:17:23.007Z,27.05
2023-04-19T01:18:23.078Z,28.68
2023-04-19T01:19:23.095Z,28.90
2023-04-19T01:20:23.118Z,29.49
2023-04-19T01:21:23.136Z,29.73
2023-04-19T01:22:23.195Z,27.27
2023-04-19T01:23:23.200Z,28.50
2023-04-19T01:24:23.210Z,28.79
2023-04-19T01:25:23.232Z,27.87
2023-04-19T01:26:23.236Z,28.05
2023-04-19T01:27:23.260Z,26.46
2023-04-19T01:28:23.316Z,28.36
2023-04-19T01:29:23.414Z,27.06
2023-04-19T01:30:23.460Z,26.94
2023-04-19T01:31:24.268Z,25.66
2023-04-19T01:32:23.676Z,27.68
2023-04-19T01:33:23.705Z,27.75
2023-04-19T01:34:23.769Z,27.50
2023-04-19T01:35:23.843Z,26.74
2023-04-19T01:36:23.922Z,27.70
2023-04-19T01:37:23.971Z,29.89
2023-04-19T01:38:24.058Z,27.34
2023-04-19T01:39:24.125Z,30.24
2023-04-19T01:40:24.200Z,30.26
2023-04-19T01:41:24.286Z,27.01
2023-04-19T01:42:24.348Z,27.30
2023-04-19T01:43:24.440Z,27.63
2023-04-19T01:44:24.501Z,30.41
2023-04-19T01:45:24.559Z,28.33
2023-04-19T01:46:24.665Z,30.24
2023-04-19T01:47:24.688Z,30.44
2023-04-19T01:48:24.684Z,30.43
2023-04-19T01:49:24.703Z,31.50
2023-04-19T01:50:24.726Z,29.62
2023-04-19T01:51:24.733Z,32.50
2023-04-19T01:52:24.758Z,31.51
2023-04-19T01:53:24.790Z,33.10
2023-04-19T01:54:24.814Z,33.41
2023-04-19T01:55:24.829Z,32.39
2023-04-19T01:56:24.861Z,32.57
2023-04-19T01:57:24.908Z,31.36
2023-04-19T01:58:24.921Z,27.09
2023-04-19T01:59:24.945Z,34.06
2023-04-19T02:00:24.965Z,32.02
2023-04-19T02:01:25.112Z,32.49
2023-04-19T02:02:25.192Z,29.02
2023-04-19T02:03:25.287Z,32.61
2023-04-19T02:04:25.092Z,29.06
2023-04-19T02:05:25.084Z,28.27
2023-04-19T02:06:25.116Z,29.77
2023-04-19T02:07:25.186Z,32.43
2023-04-19T02:08:25.283Z,30.14
2023-04-19T02:09:25.327Z,30.31
2023-04-19T02:10:25.400Z,31.35
2023-04-19T02:11:25.472Z,31.41
2023-04-19T02:12:25.546Z,25.00
2023-04-19T02:13:25.608Z,34.63
2023-04-19T02:14:25.683Z,30.05
2023-04-19T02:15:25.756Z,30.04
2023-04-19T02:16:25.863Z,29.97
2023-04-19T02:17:25.922Z,29.05
2023-04-19T02:18:25.972Z,30.39
2023-04-19T02:19:26.057Z,29.72
2023-04-19T02:20:26.109Z,30.95
2023-04-19T02:21:26.204Z,28.68
2023-04-19T02:22:26.244Z,31.74
2023-04-19T02:23:26.329Z,30.50
2023-04-19T02:24:26.402Z,27.60
2023-04-19T02:25:26.476Z,28.16
2023-04-19T02:26:26.539Z,32.18
2023-04-19T02:27:26.620Z,29.65
2023-04-19T02:28:26.679Z,27.48
2023-04-19T02:29:26.754Z,32.24
2023-04-19T02:30:26.817Z,28.70
2023-04-19T02:31:26.972Z,30.27
2023-04-19T02:32:27.021Z,27.53
2023-04-19T02:33:27.084Z,29.21
2023-04-19T02:34:27.109Z,28.19
2023-04-19T02:35:27.171Z,29.07
2023-04-19T02:36:27.242Z,30.45
2023-04-19T02:37:27.326Z,30.09
2023-04-19T02:38:27.375Z,31.77
2023-04-19T02:39:27.452Z,28.34
2023-04-19T02:40:27.499Z,30.89
2023-04-19T02:41:27.639Z,29.87
2023-04-19T02:42:27.647Z,27.82
2023-04-19T02:43:27.734Z,30.74
2023-04-19T02:44:27.795Z,29.52
2023-04-19T02:45:27.866Z,29.21
2023-04-19T02:46:28.001Z,28.48
2023-04-19T02:47:28.032Z,27.67
2023-04-19T02:48:28.092Z,29.81
2023-04-19T02:49:28.163Z,28.74
2023-04-19T02:50:28.213Z,34.62
2023-04-19T02:51:28.273Z,29.44
2023-04-19T02:52:28.351Z,33.46
2023-04-19T02:53:28.444Z,30.27
2023-04-19T02:54:28.484Z,29.57
2023-04-19T02:55:28.557Z,29.22
2023-04-19T02:56:28.626Z,29.39
2023-04-19T02:57:28.707Z,26.80
2023-04-19T02:58:28.780Z,28.66
2023-04-19T02:59:28.872Z,32.31
2023-04-19T03:00:28.926Z,31.46
2023-04-19T03:01:29.015Z,28.75
2023-04-19T03:02:29.150Z,27.96
2023-04-19T03:03:29.226Z,31.31
2023-04-19T03:04:29.371Z,25.00
2023-04-19T03:05:29.323Z,31.99
2023-04-19T03:06:29.405Z,31.22
2023-04-19T03:07:29.413Z,31.35
2023-04-19T03:08:29.461Z,31.62
2023-04-19T03:09:29.470Z,32.79
2023-04-19T03:10:29.470Z,31.89
2023-04-19T03:11:29.510Z,33.60
2023-04-19T03:12:29.533Z,28.38
2023-04-19T03:13:29.597Z,33.84
2023-04-19T03:14:29.580Z,28.99
2023-04-19T03:15:29.587Z,28.92
2023-04-19T03:16:29.658Z,27.31
2023-04-19T03:17:29.687Z,28.24
2023-04-19T03:18:29.766Z,29.04
2023-04-19T03:19:29.852Z,31.55
2023-04-19T03:20:29.913Z,31.42
2023-04-19T03:21:30.002Z,31.07
2023-04-19T03:22:29.997Z,31.33
2023-04-19T03:23:30.012Z,31.40
2023-04-19T03:24:30.104Z,31.35
2023-04-19T03:25:30.051Z,32.03
2023-04-19T03:26:30.074Z,31.08
2023-04-19T03:27:30.108Z,25.86
2023-04-19T03:28:30.129Z,28.83
2023-04-19T03:29:30.222Z,29.48
2023-04-19T03:30:30.176Z,27.89
2023-04-19T03:31:30.258Z,32.40
2023-04-19T03:32:30.366Z,30.72
2023-04-19T03:33:30.384Z,33.06
2023-04-19T03:34:30.452Z,34.31
2023-04-19T03:35:30.523Z,30.52
2023-04-19T03:36:30.603Z,31.68
2023-04-19T03:37:30.680Z,28.34
2023-04-19T03:38:30.743Z,33.47
2023-04-19T03:39:30.809Z,30.32
2023-04-19T03:40:30.870Z,31.93
2023-04-19T03:41:30.970Z,30.36
2023-04-19T03:42:31.058Z,30.40
2023-04-19T03:43:31.128Z,28.67
2023-04-19T03:44:31.203Z,33.03
2023-04-19T03:45:31.272Z,30.67
2023-04-19T03:46:31.373Z,31.01
2023-04-19T03:47:31.369Z,31.03
2023-04-19T03:48:31.323Z,30.03
2023-04-19T03:49:31.357Z,32.62
2023-04-19T03:50:31.361Z,30.17
2023-04-19T03:51:31.388Z,31.11
2023-04-19T03:52:31.400Z,30.64
2023-04-19T03:53:31.740Z,31.54
2023-04-19T03:54:31.437Z,31.50
2023-04-19T03:55:31.492Z,32.95
2023-04-19T03:56:31.573Z,29.25
2023-04-19T03:57:31.641Z,29.21
2023-04-19T03:58:31.743Z,30.21
2023-04-19T03:59:31.839Z,32.12
2023-04-19T04:00:31.882Z,31.90
2023-04-19T04:01:31.937Z,32.06
2023-04-19T04:02:32.033Z,31.72
2023-04-19T04:03:32.118Z,28.69
2023-04-19T04:04:32.147Z,31.37
2023-04-19T04:05:32.129Z,32.49
2023-04-19T04:06:32.019Z,29.13
2023-04-19T04:07:32.035Z,30.85
2023-04-19T04:08:32.070Z,27.44
2023-04-19T04:09:33.073Z,27.85
2023-04-19T04:10:34.778Z,28.36
2023-04-19T04:11:32.126Z,29.83
2023-04-19T04:12:32.149Z,29.80
2023-04-19T04:13:32.166Z,33.10
2023-04-19T04:14:32.206Z,28.90
2023-04-19T04:15:32.215Z,30.02
2023-04-19T04:16:32.259Z,28.24
2023-04-19T04:17:32.315Z,31.29
2023-04-19T04:18:32.270Z,29.27
2023-04-19T04:19:32.305Z,29.82
2023-04-19T04:20:32.312Z,30.31
2023-04-19T04:21:32.343Z,31.77
2023-04-19T04:22:32.361Z,30.66
2023-04-19T04:23:32.384Z,31.08
2023-04-19T04:24:32.411Z,29.16
2023-04-19T04:25:32.433Z,31.51
2023-04-19T04:26:32.460Z,31.03
2023-04-19T04:27:32.488Z,31.27
2023-04-19T04:28:32.530Z,31.15
2023-04-19T04:29:32.552Z,31.59
2023-04-19T04:30:32.580Z,31.52
2023-04-19T04:31:32.639Z,33.53
2023-04-19T04:32:32.655Z,31.33
2023-04-19T04:33:32.663Z,31.62
2023-04-19T04:34:32.690Z,31.57
2023-04-19T04:35:34.267Z,31.23
2023-04-19T04:36:32.726Z,31.42
2023-04-19T04:37:32.746Z,31.86
2023-04-19T04:38:32.770Z,33.26
2023-04-19T04:39:32.802Z,31.19
2023-04-19T04:40:32.836Z,31.92
2023-04-19T04:41:32.839Z,30.30
2023-04-19T04:42:32.870Z,31.43
2023-04-19T04:43:32.893Z,30.28
2023-04-19T04:44:32.923Z,29.05
2023-04-19T04:45:32.953Z,29.65
2023-04-19T04:46:32.954Z,30.50
2023-04-19T04:47:33.019Z,29.18
2023-04-19T04:48:33.039Z,28.93
2023-04-19T04:49:33.029Z,30.69
2023-04-19T04:50:33.076Z,33.29
2023-04-19T04:51:33.100Z,30.58
2023-04-19T04:52:33.121Z,31.06
2023-04-19T04:53:33.135Z,31.45
2023-04-19T04:54:33.163Z,30.85
2023-04-19T04:55:33.189Z,32.59
2023-04-19T04:56:33.235Z,32.29
2023-04-19T04:57:33.205Z,30.84
2023-04-19T04:58:33.215Z,31.68
2023-04-19T04:59:33.243Z,31.09
2023-04-19T05:00:33.253Z,33.03
2023-04-19T05:01:33.799Z,33.64
2023-04-19T05:02:33.383Z,30.98
2023-04-19T05:03:33.416Z,31.58
2023-04-19T05:04:33.509Z,31.48
2023-04-19T05:05:33.552Z,31.69
2023-04-19T05:06:33.637Z,34.03
2023-04-19T05:07:33.649Z,31.02
2023-04-19T05:08:33.672Z,30.81
2023-04-19T05:09:33.708Z,30.82
2023-04-19T05:10:33.709Z,33.01
2023-04-19T05:11:33.730Z,32.01
2023-04-19T05:12:33.753Z,30.96
2023-04-19T05:13:33.787Z,31.38
2023-04-19T05:14:33.791Z,31.30
2023-04-19T05:15:33.818Z,30.89
2023-04-19T05:16:33.860Z,31.51
2023-04-19T05:17:33.873Z,32.44
2023-04-19T05:18:33.906Z,33.28
2023-04-19T05:19:33.905Z,32.15
2023-04-19T05:20:33.929Z,31.85
2023-04-19T05:21:33.945Z,32.14
2023-04-19T05:22:34.777Z,32.25
2023-04-19T05:23:34.782Z,32.92
2023-04-19T05:24:34.018Z,33.35
2023-04-19T05:25:34.040Z,37.70
2023-04-19T05:26:34.051Z,47.51
2023-04-19T05:27:34.076Z,46.65
2023-04-19T05:28:34.116Z,51.50
2023-04-19T05:29:34.120Z,55.20
2023-04-19T05:30:34.134Z,51.79
2023-04-19T05:31:35.276Z,56.52
2023-04-19T05:32:34.318Z,57.76
2023-04-19T05:33:34.326Z,57.57
2023-04-19T05:34:34.407Z,54.91
2023-04-19T05:35:34.470Z,58.33
2023-04-19T05:36:34.530Z,61.23
2023-04-19T05:37:34.581Z,58.27
2023-04-19T05:38:34.647Z,59.57
2023-04-19T05:39:34.739Z,59.86
2023-04-19T05:40:34.672Z,60.54
2023-04-19T05:41:34.704Z,62.03
2023-04-19T05:42:34.720Z,63.01
2023-04-19T05:43:34.744Z,63.00
2023-04-19T05:44:34.764Z,66.12
2023-04-19T05:45:34.785Z,64.42
2023-04-19T05:46:34.863Z,69.14
2023-04-19T05:47:34.846Z,68.30
2023-04-19T05:48:34.851Z,72.84
2023-04-19T05:49:34.870Z,69.16
2023-04-19T05:50:34.900Z,69.44
2023-04-19T05:51:34.910Z,69.69
2023-04-19T05:52:34.938Z,70.59
2023-04-19T05:53:34.974Z,71.49
2023-04-19T05:54:35.755Z,74.56
2023-04-19T05:55:35.056Z,73.14
2023-04-19T05:56:35.031Z,70.89
2023-04-19T05:57:35.054Z,73.71
2023-04-19T05:58:35.086Z,70.53
2023-04-19T05:59:35.146Z,70.77
2023-04-19T06:00:35.151Z,70.66
2023-04-19T06:01:35.178Z,72.91
2023-04-19T06:02:35.405Z,74.58
2023-04-19T06:03:35.491Z,76.79
2023-04-19T06:04:35.542Z,72.03
2023-04-19T06:05:35.473Z,76.19
2023-04-19T06:06:35.510Z,74.16
2023-04-19T06:07:40.115Z,76.34
2023-04-19T06:08:36.745Z,76.56
2023-04-19T06:09:35.684Z,77.05
2023-04-19T06:10:51.372Z,77.19
2023-04-19T06:11:43.161Z,76.78
2023-04-19T06:12:36.800Z,76.88
2023-04-19T06:13:35.711Z,77.96
2023-04-19T06:14:35.737Z,79.91
2023-04-19T06:15:35.772Z,81.00
2023-04-19T06:16:35.797Z,87.92
2023-04-19T06:17:35.853Z,85.61
2023-04-19T06:18:35.858Z,87.18
2023-04-19T06:19:35.862Z,88.13
2023-04-19T06:20:35.876Z,84.96
2023-04-19T06:21:35.894Z,86.57
2023-04-19T06:22:35.920Z,86.64
2023-04-19T06:23:35.939Z,87.53
2023-04-19T06:24:35.999Z,88.01
2023-04-19T06:25:36.125Z,87.44
2023-04-19T06:26:36.790Z,85.86
2023-04-19T06:27:36.181Z,88.67
2023-04-19T06:28:36.264Z,95.42
2023-04-19T06:29:36.311Z,103.13
2023-04-19T06:30:36.368Z,102.12
2023-04-19T06:31:36.471Z,110.12
2023-04-19T06:32:38.270Z,107.28
2023-04-19T06:33:36.611Z,107.91
2023-04-19T06:34:36.629Z,108.03
2023-04-19T06:35:36.650Z,103.91
2023-04-19T06:36:36.670Z,93.87
2023-04-19T06:37:36.752Z,87.80
2023-04-19T06:38:36.749Z,74.46
2023-04-19T06:39:36.764Z,70.30
2023-04-19T06:40:36.814Z,67.88
2023-04-19T06:41:38.815Z,57.86
2023-04-19T06:42:37.858Z,58.05
2023-04-19T06:43:36.907Z,49.79
2023-04-19T06:44:36.921Z,23.52
2023-04-19T06:45:36.950Z,0.00
2023-04-19T06:46:36.977Z,0.00
2023-04-19T06:47:37.088Z,5.71
2023-04-19T06:48:37.119Z,6.83
2023-04-19T06:49:37.134Z,9.83
2023-04-19T06:50:37.100Z,10.25
2023-04-19T06:51:37.189Z,10.07
2023-04-19T06:52:37.197Z,13.89
2023-04-19T06:53:38.043Z,22.74
2023-04-19T06:54:37.314Z,7.69
2023-04-19T06:55:37.273Z,39.99
2023-04-19T06:56:37.296Z,51.97
2023-04-19T06:57:37.314Z,44.81
2023-04-19T06:58:38.333Z,33.56
2023-04-19T06:59:37.360Z,39.04
2023-04-19T07:00:40.826Z,41.90
2023-04-19T07:01:37.495Z,50.29
2023-04-19T07:02:37.612Z,49.86
2023-04-19T07:03:37.551Z,55.70
2023-04-19T07:04:37.970Z,58.79
2023-04-19T07:05:37.486Z,58.98
2023-04-19T07:06:37.503Z,60.00
2023-04-19T07:07:37.512Z,62.84
2023-04-19T07:08:49.311Z,67.72
2023-04-19T07:09:38.598Z,59.75
2023-04-19T07:10:37.558Z,63.49
2023-04-19T07:11:37.587Z,69.09
2023-04-19T07:12:37.582Z,78.73
2023-04-19T07:13:42.473Z,96.25
2023-04-19T07:14:39.326Z,60.47
2023-04-19T07:15:39.332Z,65.88
2023-04-19T07:16:37.614Z,60.77
2023-04-19T07:17:37.707Z,67.73
2023-04-19T07:18:37.662Z,80.80
2023-04-19T07:19:37.657Z,101.21
2023-04-19T07:20:37.669Z,130.97
2023-04-19T07:21:37.683Z,144.73
2023-04-19T07:22:40.340Z,153.21
2023-04-19T07:23:37.940Z,153.57
2023-04-19T07:24:38.035Z,155.15
2023-04-19T07:25:37.978Z,161.58
2023-04-19T07:26:37.992Z,174.00
2023-04-19T07:27:38.021Z,191.16
2023-04-19T07:28:40.838Z,196.49
2023-04-19T07:29:38.044Z,206.63
2023-04-19T07:30:38.817Z,215.61
2023-04-19T07:31:38.224Z,224.72
2023-04-19T07:32:38.196Z,228.46
2023-04-19T07:33:38.054Z,235.91
2023-04-19T07:34:38.079Z,242.20
2023-04-19T07:35:38.066Z,247.77
2023-04-19T07:36:38.822Z,248.46
2023-04-19T07:37:38.819Z,250.75
2023-04-19T07:38:38.087Z,255.73
2023-04-19T07:39:38.148Z,262.90
2023-04-19T07:40:38.083Z,278.04
2023-04-19T07:41:38.089Z,250.00
2023-04-19T07:42:38.083Z,246.47
2023-04-19T07:43:39.259Z,248.86
2023-04-19T07:44:38.084Z,249.43
2023-04-19T07:45:38.377Z,250.24
2023-04-19T07:46:38.154Z,248.21
2023-04-19T07:47:38.174Z,250.00
2023-04-19T07:48:38.084Z,249.85
2023-04-19T07:49:38.149Z,250.00
2023-04-19T07:50:38.204Z,249.42
2023-04-19T07:51:38.228Z,250.00
2023-04-19T07:52:38.462Z,249.38
2023-04-19T07:53:38.359Z,250.00
2023-04-19T07:54:38.376Z,250.00
2023-04-19T07:55:38.445Z,249.67
2023-04-19T07:56:40.484Z,249.01
2023-04-19T07:57:38.604Z,250.00
2023-04-19T07:58:38.591Z,249.48
2023-04-19T07:59:38.635Z,250.00
2023-04-19T08:00:38.882Z,248.14
2023-04-19T08:01:40.487Z,250.00
2023-04-19T08:02:38.973Z,248.96
2023-04-19T08:03:39.034Z,250.00
2023-04-19T08:04:39.159Z,249.26
2023-04-19T08:05:39.033Z,250.24
2023-04-19T08:06:39.054Z,248.93
2023-04-19T08:07:39.117Z,250.00
2023-04-19T08:08:40.116Z,250.27
2023-04-19T08:09:39.351Z,251.18
2023-04-19T08:10:39.121Z,252.72
2023-04-19T08:11:39.117Z,258.32
2023-04-19T08:12:47.274Z,270.23
2023-04-19T08:13:40.517Z,250.75
2023-04-19T08:14:56.416Z,252.37
2023-04-19T08:16:20.528Z,250.60
2023-04-19T08:17:06.450Z,250.53
2023-04-19T08:17:42.408Z,250.45
2023-04-19T08:18:39.417Z,250.50
2023-04-19T08:19:39.435Z,248.80
2023-04-19T08:20:39.434Z,239.50
2023-04-19T08:21:41.438Z,237.78
2023-04-19T08:22:39.452Z,238.20
2023-04-19T08:23:48.023Z,230.22
2023-04-19T08:24:41.335Z,236.60
2023-04-19T08:25:39.485Z,227.97
2023-04-19T08:26:40.478Z,230.49
2023-04-19T08:27:39.479Z,224.81
2023-04-19T08:28:41.336Z,226.05
2023-04-19T08:29:40.372Z,225.47
2023-04-19T08:30:39.507Z,235.00
2023-04-19T08:31:39.538Z,233.96
2023-04-19T08:32:39.559Z,234.10
2023-04-19T08:33:39.525Z,237.06
2023-04-19T08:34:39.502Z,245.73
2023-04-19T08:35:39.512Z,244.28
2023-04-19T08:36:48.378Z,250.04
2023-04-19T08:37:43.915Z,250.19
2023-04-19T08:38:39.484Z,250.25
2023-04-19T08:39:41.383Z,250.82
2023-04-19T08:40:39.493Z,251.40
2023-04-19T08:41:39.504Z,252.49
2023-04-19T08:42:39.494Z,254.68
2023-04-19T08:43:40.572Z,249.38
2023-04-19T08:44:51.019Z,249.53
2023-04-19T08:45:40.554Z,249.67
2023-04-19T08:46:39.502Z,250.50
2023-04-19T08:48:39.621Z,252.97
2023-04-19T08:49:41.966Z,255.92
2023-04-19T08:50:48.768Z,249.78
2023-04-19T08:51:40.525Z,250.00
2023-04-19T08:52:51.810Z,251.20
2023-04-19T08:53:40.515Z,249.89
2023-04-19T08:54:39.521Z,251.16
2023-04-19T08:55:40.503Z,249.96
2023-04-19T08:56:40.524Z,250.04
2023-04-19T08:57:39.867Z,251.44
2023-04-19T08:58:56.835Z,253.77
2023-04-19T08:59:40.499Z,249.98
2023-04-19T09:00:39.495Z,251.66
2023-04-19T09:01:44.382Z,254.50
2023-04-19T09:02:39.660Z,250.03
2023-04-19T09:03:55.505Z,251.96
2023-04-19T09:04:40.784Z,250.11
2023-04-19T09:05:39.957Z,252.27
2023-04-19T09:06:39.812Z,255.32
2023-04-19T09:07:40.466Z,250.07
2023-04-19T09:08:39.467Z,251.82
2023-04-19T09:09:48.767Z,255.47
2023-04-19T09:10:40.870Z,250.12
2023-04-19T09:11:39.440Z,252.30
2023-04-19T09:12:39.426Z,255.78
2023-04-19T09:13:40.373Z,259.20
2023-04-19T09:14:41.430Z,266.20
2023-04-19T09:15:39.475Z,250.02
2023-04-19T09:16:40.278Z,252.11
2023-04-19T09:17:39.445Z,255.01
2023-04-19T09:18:48.798Z,257.49
2023-04-19T09:19:40.435Z,250.00
2023-04-19T09:20:39.459Z,251.31
2023-04-19T09:21:39.469Z,253.32
2023-04-19T09:22:39.446Z,254.61
2023-04-19T09:23:39.440Z,256.72
2023-04-19T09:25:55.037Z,249.55
2023-04-19T09:26:39.456Z,249.71
2023-04-19T09:27:39.454Z,249.04
2023-04-19T09:28:39.457Z,246.16
2023-04-19T09:29:39.468Z,245.61
2023-04-19T09:30:50.129Z,243.70
2023-04-19T09:31:50.943Z,247.04
2023-04-19T09:32:40.552Z,249.63
2023-04-19T09:33:39.575Z,248.72
2023-04-19T09:34:39.498Z,243.75
2023-04-19T09:35:39.509Z,241.01
2023-04-19T09:36:39.517Z,239.71
2023-04-19T09:38:40.522Z,238.31
2023-04-19T09:39:40.515Z,238.38
2023-04-19T09:40:39.515Z,238.79
2023-04-19T09:41:41.441Z,238.26
2023-04-19T09:42:55.482Z,238.21
2023-04-19T09:45:09.529Z,238.25
2023-04-19T09:45:40.556Z,238.32
2023-04-19T09:46:39.630Z,237.38
2023-04-19T09:47:39.624Z,233.12
2023-04-19T09:48:39.627Z,230.88
2023-04-19T09:49:48.529Z,229.76
2023-04-19T09:50:53.658Z,232.34
2023-04-19T09:51:40.604Z,237.84
2023-04-19T09:52:39.603Z,233.01
2023-04-19T09:53:39.614Z,235.77
2023-04-19T09:54:39.616Z,228.90
2023-04-19T09:55:48.949Z,226.35
2023-04-19T09:56:40.682Z,229.82
2023-04-19T09:57:39.653Z,225.17
2023-04-19T09:58:51.347Z,222.12
2023-04-19T09:59:40.678Z,225.77
2023-04-19T10:01:39.711Z,221.09
2023-04-19T10:02:39.881Z,219.33
2023-04-19T10:03:39.865Z,219.19
2023-04-19T10:05:39.902Z,216.45
2023-04-19T10:06:58.515Z,216.36
2023-04-19T10:07:40.905Z,216.51
2023-04-19T10:08:39.829Z,216.60
2023-04-19T10:09:51.804Z,215.19
2023-04-19T10:10:42.332Z,216.43
2023-04-19T10:11:40.121Z,216.48
2023-04-19T10:13:40.905Z,216.45
2023-04-19T10:14:39.912Z,213.31
2023-04-19T10:15:50.090Z,211.39
2023-04-19T10:16:40.993Z,216.38
2023-04-19T10:17:40.096Z,213.17
2023-04-19T10:18:39.994Z,210.63
2023-04-19T10:19:40.017Z,208.05
2023-04-19T10:20:40.035Z,207.63
2023-04-19T10:21:40.049Z,205.53
2023-04-19T10:22:41.920Z,203.04
2023-04-19T10:23:40.143Z,203.33
2023-04-19T10:24:40.621Z,203.87
2023-04-19T10:25:40.107Z,204.38
2023-04-19T10:26:40.127Z,202.84
2023-04-19T10:27:40.555Z,202.36
2023-04-19T10:28:40.201Z,201.07
2023-04-19T10:29:40.806Z,200.09
2023-04-19T10:30:40.295Z,199.19
2023-04-19T10:31:41.839Z,199.34
2023-04-19T10:32:40.249Z,198.95
2023-04-19T10:33:40.243Z,198.03
2023-04-19T10:34:40.275Z,197.50
2023-04-19T10:35:40.292Z,197.06
2023-04-19T10:36:40.285Z,195.64
2023-04-19T10:37:40.299Z,195.39
2023-04-19T10:38:40.351Z,194.64
2023-04-19T10:39:40.356Z,195.94
2023-04-19T10:40:40.393Z,193.05
2023-04-19T10:41:40.385Z,193.24
2023-04-19T10:42:40.375Z,193.40
2023-04-19T10:43:40.400Z,193.23
2023-04-19T10:44:40.406Z,193.23
2023-04-19T10:45:41.443Z,193.29
2023-04-19T10:46:40.518Z,193.32
2023-04-19T10:47:40.466Z,191.88
2023-04-19T10:48:40.456Z,193.18
2023-04-19T10:49:40.469Z,191.49
2023-04-19T10:50:40.509Z,191.59
2023-04-19T10:51:40.483Z,188.28
2023-04-19T10:52:40.500Z,187.81
2023-04-19T10:53:40.503Z,190.60
2023-04-19T10:54:40.544Z,187.74
2023-04-19T10:55:40.528Z,192.27
2023-04-19T10:56:40.533Z,187.48
2023-04-19T10:57:40.540Z,186.11
2023-04-19T10:58:41.038Z,189.20
2023-04-19T10:59:40.569Z,187.41
2023-04-19T11:00:40.620Z,190.17
2023-04-19T11:01:40.888Z,185.64
2023-04-19T11:02:41.023Z,183.92
2023-04-19T11:03:40.749Z,183.50
2023-04-19T11:04:41.487Z,183.27
2023-04-19T11:05:40.596Z,182.64
2023-04-19T11:06:40.615Z,180.88
2023-04-19T11:07:40.614Z,182.58
2023-04-19T11:08:40.625Z,178.44
2023-04-19T11:09:40.642Z,179.70
2023-04-19T11:10:40.748Z,179.83
2023-04-19T11:11:40.656Z,180.02
2023-04-19T11:12:40.675Z,179.84
2023-04-19T11:13:40.680Z,179.90
2023-04-19T11:14:40.664Z,180.04
2023-04-19T11:15:40.696Z,179.33
2023-04-19T11:16:45.997Z,179.31
2023-04-19T11:17:41.757Z,179.81
2023-04-19T11:18:41.399Z,179.71
2023-04-19T11:19:40.710Z,177.98
2023-04-19T11:20:40.771Z,179.76
2023-04-19T11:21:40.736Z,179.71
2023-04-19T11:22:40.754Z,176.97
2023-04-19T11:23:40.731Z,176.45
2023-04-19T11:24:40.732Z,175.27
2023-04-19T11:25:42.413Z,176.14
2023-04-19T11:26:40.755Z,175.10
2023-04-19T11:27:40.758Z,173.50
2023-04-19T11:28:40.769Z,175.44
2023-04-19T11:29:40.780Z,172.25
2023-04-19T11:30:40.788Z,174.88
2023-04-19T11:31:40.814Z,174.97
2023-04-19T11:32:40.846Z,174.25
2023-04-19T11:33:40.814Z,172.46
2023-04-19T11:34:40.817Z,171.76
2023-04-19T11:35:40.820Z,172.40
2023-04-19T11:36:40.845Z,173.51
2023-04-19T11:37:40.844Z,173.65
2023-04-19T11:38:40.854Z,172.89
2023-04-19T11:39:40.880Z,171.95
2023-04-19T11:40:40.881Z,170.56
2023-04-19T11:41:40.959Z,169.94
2023-04-19T11:42:41.090Z,168.66
2023-04-19T11:43:40.912Z,169.27
2023-04-19T11:44:41.011Z,168.95
2023-04-19T11:45:41.072Z,169.04
2023-04-19T11:46:41.038Z,168.92
2023-04-19T11:47:40.987Z,167.79
2023-04-19T11:48:40.954Z,167.02
2023-04-19T11:49:40.975Z,167.18
2023-04-19T11:50:40.961Z,167.26
2023-04-19T11:51:40.983Z,167.43
2023-04-19T11:52:41.107Z,167.31
2023-04-19T11:53:41.012Z,166.42
2023-04-19T11:54:41.002Z,167.19
2023-04-19T11:55:41.010Z,167.24
2023-04-19T11:56:41.022Z,167.27
2023-04-19T11:57:41.731Z,167.40
2023-04-19T11:58:41.056Z,167.18
2023-04-19T11:59:42.070Z,167.25
2023-04-19T12:00:41.997Z,167.30
2023-04-19T12:01:41.256Z,167.04
2023-04-19T12:02:41.256Z,165.54
2023-04-19T12:03:41.331Z,165.30
2023-04-19T12:04:41.322Z,167.13
2023-04-19T12:05:41.208Z,166.01
2023-04-19T12:06:41.151Z,165.27
2023-04-19T12:07:42.958Z,163.91
2023-04-19T12:08:41.182Z,164.01
2023-04-19T12:09:42.949Z,164.20
2023-04-19T12:10:41.222Z,164.39
2023-04-19T12:11:41.431Z,164.31
2023-04-19T12:12:41.261Z,163.66
2023-04-19T12:13:41.931Z,161.46
2023-04-19T12:14:41.294Z,161.48
2023-04-19T12:15:41.308Z,159.27
2023-04-19T12:16:41.420Z,159.88
2023-04-19T12:17:54.611Z,159.66
2023-04-19T12:18:42.349Z,159.89
2023-04-19T12:19:41.362Z,159.97
2023-04-19T12:20:41.390Z,160.23
2023-04-19T12:21:41.413Z,159.95
2023-04-19T12:22:41.419Z,160.08
2023-04-19T12:23:41.480Z,159.81
2023-04-19T12:24:41.449Z,159.82
2023-04-19T12:25:41.461Z,159.88
2023-04-19T12:26:41.483Z,160.14
2023-04-19T12:27:42.433Z,159.91
2023-04-19T12:28:41.492Z,157.06
2023-04-19T12:29:41.536Z,157.44
2023-04-19T12:30:41.516Z,156.47
2023-04-19T12:31:41.956Z,155.06
2023-04-19T12:32:41.693Z,155.28
2023-04-19T12:33:41.565Z,153.29
2023-04-19T12:34:41.581Z,154.77
2023-04-19T12:35:41.596Z,154.93
2023-04-19T12:36:41.615Z,155.09
2023-04-19T12:37:41.626Z,155.48
2023-04-19T12:38:41.669Z,154.35
2023-04-19T12:39:41.659Z,153.05
2023-04-19T12:40:41.674Z,155.13
2023-04-19T12:41:41.694Z,153.23
2023-04-19T12:42:41.702Z,153.01
2023-04-19T12:43:41.715Z,152.35
2023-04-19T12:44:41.728Z,151.88
2023-04-19T12:45:41.766Z,152.06
2023-04-19T12:46:41.765Z,152.32
2023-04-19T12:47:41.792Z,151.96
2023-04-19T12:48:41.768Z,152.02
2023-04-19T12:49:41.777Z,152.26